Embudo, NM (87531)

9:01 AM MDT on October 01, 2014 (GMT -0600)
Velarde | Change Station
CLOSE
Current Station
Personal Weather Station
Location: Velarde, NM
Elevation: 5781 ft
Nearby Weather Stations

Elev 5781 ft 36.16 °N, 105.97 °W | Updated 5 minutes ago

Clear
Clear
52.0 °F
Feels Like 52.0 °F
N
1.0
Wind Variable Wind from East
Gusts 3.0 mph

Today
High -- | Low -- °F
--% Chance of Precip.
Yesterday
High -- | Low -- °F
Precip. -- in
6:59 AM 6:47 PM
Waxing Crescent, 48% visible
Pressure 30.09 in
Visibility 10.0 miles
Clouds Clear
Dew Point 35 °F
Humidity 53%
Rainfall 0.00 in
Snow Depth 1 in , 0 in , 1 in
UV 2 out of 12
Pollen 5.90 out of 12
Air Quality Not available.
Flu Activity Not available.
METAR KLAM 301455Z AUTO 09003KT 10SM CLR 10/00 A3009 RMK AO2 T00981005

More Conditions Fewer Conditions

Pressure 30.09 in
Visibility 10.0 miles
Clouds Clear
Dew Point 35 °F
Humidity 53%
Rainfall 0.00 in
Snow Depth 1 in , 0 in , 1 in
UV 2 out of 12
Pollen 5.90 out of 12
Air Quality Not available.
Flu Activity Not available.
METAR KLAM 301455Z AUTO 09003KT 10SM CLR 10/00 A3009 RMK AO2 T00981005

More Conditions Fewer Conditions

10-Day Weather Forecast

Almanac

Astronomy

Oct. 01, 2014 Rise Set
Actual Time 6:59 AM MDT 6:47 PM MDT
Civil Twilight 6:33 AM MDT 7:13 PM MDT
Nautical Twilight 6:03 AM MDT 7:42 PM MDT
Astronomical Twilight 5:33 AM MDT 8:12 PM MDT
Moon 1:54 PM MDT No Moon Set
Length of Visible Light 12h 39m
Length of Day
11h 48m
Tomorrow will be 2m 15s shorter.
Waxing Crescent, 48% of the Moon is Illuminated
Today
Waxing Crescent
Oct 1
First Quarter
Oct 8
Full
Oct 15
Last Quarter
Oct 23
New

Today's Extremes

State Highs State Lows

Community

WunderPhotos

Upload Photos

1,757,962 photos uploaded!

Nearby

Snow Depth

Station Depth Elevation
Red River Pass #2 1 in 9850 ft
Chamita 0 in 8400 ft
Elk Cabin 1 in 8210 ft
North Costilla 1 in 10600 ft
Signal Peak 1 in 8360 ft

Earthquake Activity

City Distance Mag. Time & Date
Trinidad, Colorado 86 miles 2.9 3:55 AM MDT
2014-09-30
Minimum magnitude displayed is 2.5.

Coastal Water Temperatures

Place Temperature
No Stations Reporting

Nearby Weather Stations